To NAV CANADA Home Page Login to a new session Search on AWWS site Feedback and Comments Disclaimer Vers la page française équivalente Tips FAQ What's new on the site To the Forecasts and Observations / NOTAM section To "File a Flight Plan" website Publications and other links Update of the User's profile FIC Telephone Numbers My Weather Data Folder Route Weather Data Regional Weather Data Local Weather Data To the Forecasts and Observations / NOTAM section
Request Generated 08/01/2015 at 18:10:58 UTC . Weather information available at that time is displayed.

METAR/TAF

TALOYOAK/NU    

METAR CYYH 011800Z 06011KT 15SM FEW100 FEW220 15/04 A3004 RMK AC1CI1
AC TR CI TR SLP174=
METAR CYYH 011700Z 05010KT 15SM FEW100 FEW220 15/05 A3004 RMK AC1CI1
AC TR CI TR SLP176=
METAR CYYH 011600Z 03009KT 15SM FEW100 14/05 A3005 RMK AC1 AC TR
SLP178=

TAF CYYH 011738Z 0118/0206 04010KT P6SM FEW100
RMK NXT FCST BY 020000Z=
Your time UTC time
Weather data provided by Environment Canada and NAV CANADA